Airfield :
LOGIN :

Register | Disclaimer

   EN    FR    IT 

 










Legend :    VFR   Marginal VFR   IFR   Intensive IFR   Very Intensive IFR
Visi :
Ceiling :
>= 8 km
>= 3000ft
5 to 8 km
1000 to 3000 ft
1500m to 5 km
500 to 1000 ft
800 to 1500m
200 to 500 ft
< 800m
< 200 ft
Symbols :   Thunderstorms  Fog  Heavy snow  Heavy precipitations  Wind > 20 kt
SIGMETs :     Misc.  Thunderstorms  Icing  Turbulence  Mountain Waves  Volcanic Ashes






- Airport Elevation : 362 ft
- IATA code : WAW


EPWA - Warsaw Okecie

CURRENT METAR :
  • 072330Z 03008KT CAVOK 11/01 Q1031 NOSIG

EXPIRED METARs :
  • 072300Z 03009KT CAVOK 11/01 Q1031 NOSIG
  • 072230Z 03010KT CAVOK 12/03 Q1031 NOSIG
  • 072200Z 02009KT CAVOK 13/04 Q1031 NOSIG
  • 072130Z 01013KT CAVOK 13/04 Q1030 NOSIG
  • 072100Z 33012KT 290V360 CAVOK 14/02 Q1030 NOSIG

TAF TAF EPWA
Valid from the 08 at 00:00 until the 09 at 00:00 UTC


072330Z 0800/0824 VRB03KT CAVOK
BECMG 0815/0818 14010KT



MET'MAP, your aeronautical weather chart ! - Copyright ORBIFLY December 2007 - Disclaimer

ORBIFLY MET'MAP TEAM :

Programming & Development : Alexandra Zaïnal
Concept & original design : Baudouin d'Aumeries
Assistance for programming : Marc-Olivier Méhu
Technical & hardware support : Manuel Goepfert

Contact : metmap@orbifly.com




SOURCES & CREDITS :

   NOAA